Time;durP1;ratioP1;P1;durP2;ratioP2;P2;SDS_P1;SDS_P2;PMS_P1;PMS_P2;Temp;Humidity;BMP_temperature;BMP_pressure;BME280_temperature;BME280_humidity;BME280_pressure;Samples;Min_cycle;Max_cycle;Signal;HPM_P1;HPM_P2
2022/05/25 00:01:49;;;;;;;;;1.50;0.25;;;;;16.19;53.55;100806.00;5035448;28;45297;-51
2022/05/25 00:04:14;;;;;;;;;0.00;0.00;;;;;16.18;53.53;100812.66;5035582;28;46457;-52
2022/05/25 00:06:40;;;;;;;;;2.00;2.00;;;;;16.15;53.58;100813.97;5035172;28;45389;-50
2022/05/25 00:09:06;;;;;;;;;1.00;1.00;;;;;16.11;53.62;100812.78;5035941;28;45384;-54
2022/05/25 00:11:31;;;;;;;;;1.75;0.50;;;;;16.06;54.06;100805.22;5035699;28;45358;-54
2022/05/25 00:13:57;;;;;;;;;0.50;0.50;;;;;16.04;53.98;100812.94;5035274;28;45453;-51
2022/05/25 00:16:22;;;;;;;;;2.00;0.75;;;;;16.06;54.19;100799.69;5035288;28;45420;-55
2022/05/25 00:21:31;;;;;;;;;1.20;1.00;;;;;16.06;53.69;100805.22;5035471;28;45389;-55
2022/05/25 00:23:57;;;;;;;;;1.00;1.00;;;;;15.97;53.99;100807.53;5035398;28;46151;-51
2022/05/25 00:26:23;;;;;;;;;1.00;0.00;;;;;15.99;53.94;100805.38;5035187;28;45370;-52
2022/05/25 00:28:48;;;;;;;;;0.25;0.25;;;;;15.91;54.21;100797.41;5035463;28;45314;-49
2022/05/25 00:31:14;;;;;;;;;2.00;1.00;;;;;15.58;54.50;100750.03;5035577;28;45337;-50
2022/05/25 00:33:40;;;;;;;;;0.00;0.00;;;;;15.96;53.93;100803.09;5050548;28;47524;-56
2022/05/25 00:36:05;;;;;;;;;0.75;0.75;;;;;15.98;54.05;100809.25;5017179;28;45364;-53
2022/05/25 00:38:31;;;;;;;;;1.00;0.00;;;;;15.94;54.02;100796.97;5033977;28;45417;-52
2022/05/25 00:40:57;;;;;;;;;1.00;1.00;;;;;15.95;54.46;100806.97;5035167;28;45446;-54
2022/05/25 00:43:22;;;;;;;;;0.00;0.00;;;;;15.92;54.43;100803.84;5033853;28;45586;-53
2022/05/25 00:45:53;;;;;;;;;2.00;1.00;;;;;15.86;54.49;100803.69;5035090;28;45666;-53
2022/05/25 00:48:29;;;;;;;;;2.20;1.40;;;;;15.94;54.29;100821.03;5017923;28;45381;-51
2022/05/25 00:51:13;;;;;;;;;0.60;0.60;;;;;15.65;54.33;100782.25;5018014;28;45350;-52
2022/05/25 00:53:40;;;;;;;;;1.00;1.00;;;;;15.91;54.21;100816.78;5036430;28;47761;-54
2022/05/25 00:56:05;;;;;;;;;2.00;2.00;;;;;15.92;54.39;100829.59;5034839;28;45394;-54
2022/05/25 00:58:31;;;;;;;;;1.50;1.50;;;;;15.77;54.53;100796.03;5034925;28;45548;-52
2022/05/25 01:00:57;;;;;;;;;0.50;0.50;;;;;15.74;54.62;100797.38;5035081;28;45365;-51
2022/05/25 01:03:22;;;;;;;;;2.00;2.00;;;;;15.89;54.30;100823.69;5034927;28;45369;-50
2022/05/25 01:06:14;;;;;;;;;0.00;0.00;;;;;15.69;54.49;100794.50;5033633;28;45335;-51
2022/05/25 01:08:58;;;;;;;;;0.40;0.40;;;;;15.83;54.48;100826.34;5033954;28;45423;-50
2022/05/25 01:11:52;;;;;;;;;0.80;0.60;;;;;15.82;55.02;100832.13;5035860;28;45314;-51
2022/05/25 01:14:38;;;;;;;;;1.00;1.00;;;;;15.81;54.84;100838.75;5037976;28;46104;-51
2022/05/25 01:17:13;;;;;;;;;0.40;0.40;;;;;15.76;55.02;100841.41;5037839;28;45364;-51
2022/05/25 01:19:56;;;;;;;;;1.00;1.00;;;;;15.75;55.34;100845.25;5038180;28;45498;-50
2022/05/25 01:22:46;;;;;;;;;0.00;0.00;;;;;15.74;55.18;100844.41;5038083;28;45509;-49
2022/05/25 01:25:36;;;;;;;;;0.20;0.20;;;;;15.73;55.31;100842.72;5038117;28;46498;-51
2022/05/25 01:28:21;;;;;;;;;1.00;1.00;;;;;15.70;55.48;100843.22;5036718;28;45440;-49
2022/05/25 01:30:48;;;;;;;;;1.00;1.00;;;;;15.46;55.70;100815.59;5036597;28;45908;-51
2022/05/25 01:33:38;;;;;;;;;0.20;0.20;;;;;15.65;55.87;100846.72;5020477;28;45664;-50
2022/05/25 01:36:12;;;;;;;;;1.00;1.00;;;;;15.43;56.04;100818.88;5036405;28;47381;-53
2022/05/25 01:38:42;;;;;;;;;1.00;1.00;;;;;15.62;56.00;100849.16;5036588;28;45364;-52
2022/05/25 01:41:13;;;;;;;;;1.00;1.00;;;;;15.64;56.02;100860.78;5053804;28;45414;-51
2022/05/25 01:43:42;;;;;;;;;0.20;0.20;;;;;15.55;56.24;100852.03;5036657;28;45590;-53
2022/05/25 01:46:31;;;;;;;;;1.00;1.00;;;;;15.56;56.22;100860.09;5036702;28;45928;-50
2022/05/25 01:48:57;;;;;;;;;1.00;1.00;;;;;15.51;56.27;100859.13;5016370;28;45567;-50
2022/05/25 01:51:39;;;;;;;;;2.00;0.50;;;;;15.53;56.71;100866.09;5036441;28;45589;-50
2022/05/25 01:54:05;;;;;;;;;0.00;0.00;;;;;15.32;57.06;100865.63;5037990;28;45250;-51
2022/05/25 01:56:32;;;;;;;;;2.00;1.00;;;;;15.29;57.53;100868.88;5019716;28;48052;-51
2022/05/25 01:58:59;;;;;;;;;0.00;0.00;;;;;14.95;57.15;100812.50;5037767;28;45500;-52
2022/05/25 02:01:24;;;;;;;;;0.80;0.80;;;;;15.06;57.18;100835.69;5001715;28;45511;-50
2022/05/25 02:07:00;;;;;;;;;0.80;0.80;;;;;15.36;57.00;100879.00;5029863;28;45910;-53
2022/05/25 02:09:58;;;;;;;;;1.00;1.00;;;;;15.03;57.03;100842.53;5037420;28;45280;-56
2022/05/25 02:12:45;;;;;;;;;0.00;0.00;;;;;15.16;57.23;100867.19;5037148;28;45436;-53
2022/05/25 02:15:33;;;;;;;;;0.00;0.00;;;;;15.18;57.87;100875.25;5020521;28;45271;-53
2022/05/25 02:18:03;;;;;;;;;1.00;1.00;;;;;15.08;57.62;100861.16;5035714;28;47656;-53
2022/05/25 02:20:41;;;;;;;;;0.00;0.00;;;;;15.23;57.68;100889.19;5052695;28;45332;-51
2022/05/25 02:23:14;;;;;;;;;1.20;1.20;;;;;15.04;57.41;100878.25;5036583;28;45409;-49
2022/05/25 02:25:50;;;;;;;;;0.80;0.80;;;;;15.09;58.19;100885.00;5020190;28;45370;-49
2022/05/25 02:28:39;;;;;;;;;0.00;0.00;;;;;15.17;57.85;100890.16;5035596;28;45448;-52
2022/05/25 02:31:04;;;;;;;;;3.60;3.60;;;;;15.19;58.00;100893.50;5035506;28;45498;-51
2022/05/25 02:33:37;;;;;;;;;1.00;1.00;;;;;15.13;57.67;100886.19;5019586;28;45320;-51
2022/05/25 02:36:03;;;;;;;;;0.80;0.80;;;;;15.11;58.17;100888.34;5019446;28;45536;-52
2022/05/25 02:38:28;;;;;;;;;1.00;1.00;;;;;15.07;57.81;100879.69;5035523;28;45428;-51
2022/05/25 02:41:27;;;;;;;;;0.75;0.75;;;;;15.13;57.78;100892.56;5018773;28;45433;-50
2022/05/25 02:43:53;;;;;;;;;1.60;1.00;;;;;15.15;57.72;100897.84;5028537;28;45512;-54
2022/05/25 02:46:18;;;;;;;;;1.00;1.00;;;;;15.14;58.32;100899.78;5036082;28;45450;-54
2022/05/25 02:48:44;;;;;;;;;1.50;1.00;;;;;15.11;58.22;100891.94;5036721;28;46008;-51
2022/05/25 02:51:09;;;;;;;;;1.00;1.00;;;;;15.15;57.91;100906.97;5068934;28;45534;-49
2022/05/25 02:53:35;;;;;;;;;2.00;2.00;;;;;15.11;58.24;100899.41;5035382;28;45438;-54
2022/05/25 02:56:01;;;;;;;;;1.00;1.00;;;;;15.13;58.09;100905.53;5069223;28;45513;-49
2022/05/25 02:58:27;;;;;;;;;1.00;1.00;;;;;15.07;58.14;100901.81;5036232;28;45436;-53
2022/05/25 03:00:54;;;;;;;;;1.00;1.00;;;;;15.10;58.46;100906.03;5034867;28;45327;-52
2022/05/25 03:03:19;;;;;;;;;1.80;0.20;;;;;15.09;58.46;100904.34;5036337;28;45771;-48
2022/05/25 03:05:45;;;;;;;;;1.00;1.00;;;;;15.00;58.30;100898.31;5036820;28;45666;-48
2022/05/25 03:08:10;;;;;;;;;0.25;0.25;;;;;14.95;58.50;100900.94;5034859;28;45640;-51
2022/05/25 03:10:36;;;;;;;;;1.50;1.00;;;;;15.00;58.41;100920.44;5035330;28;45402;-51
2022/05/25 03:13:05;;;;;;;;;0.75;0.75;;;;;14.90;58.44;100915.47;5036535;28;45413;-53
2022/05/25 03:15:30;;;;;;;;;1.00;1.00;;;;;14.70;58.99;100886.22;5036615;28;45419;-55
2022/05/25 03:17:56;;;;;;;;;2.00;1.00;;;;;14.92;58.93;100932.66;5035940;28;45453;-50
2022/05/25 03:20:21;;;;;;;;;1.00;1.00;;;;;14.95;58.66;100932.19;5036307;28;45493;-50
2022/05/25 03:22:47;;;;;;;;;1.00;1.00;;;;;14.76;58.95;100907.41;5036269;28;45381;-51
2022/05/25 03:25:12;;;;;;;;;0.00;0.00;;;;;14.60;58.56;100885.94;5068653;28;45459;-54
2022/05/25 03:27:38;;;;;;;;;1.00;1.00;;;;;14.94;58.92;100938.78;5034619;28;47524;-53
2022/05/25 03:30:05;;;;;;;;;2.25;1.75;;;;;14.95;58.57;100942.41;5036008;28;45336;-50
2022/05/25 03:32:30;;;;;;;;;1.00;1.00;;;;;14.94;59.20;100946.25;5068615;28;45425;-53
2022/05/25 03:34:57;;;;;;;;;0.00;0.00;;;;;14.79;58.68;100936.47;4997331;28;45582;-51
2022/05/25 03:37:23;;;;;;;;;0.00;0.00;;;;;14.58;58.42;100891.69;5035760;28;45558;-48
2022/05/25 03:39:48;;;;;;;;;1.50;1.50;;;;;14.76;58.77;100926.75;5035028;28;45375;-50
2022/05/25 03:42:14;;;;;;;;;3.00;3.00;;;;;14.73;59.04;100937.38;5035806;28;45343;-56
2022/05/25 03:44:40;;;;;;;;;1.75;1.75;;;;;14.81;59.23;100952.78;5035073;28;45536;-51
2022/05/25 03:47:05;;;;;;;;;1.00;1.00;;;;;14.80;58.99;100964.94;5035809;28;46589;-51
2022/05/25 03:49:31;;;;;;;;;0.25;0.25;;;;;14.80;59.39;100967.69;5035941;28;45476;-50
2022/05/25 03:51:56;;;;;;;;;1.00;1.00;;;;;14.70;59.38;100969.09;5036050;28;45372;-49
2022/05/25 03:54:22;;;;;;;;;1.00;1.00;;;;;14.42;58.95;100929.09;5034591;28;45497;-52
2022/05/25 03:56:47;;;;;;;;;1.00;1.00;;;;;14.73;59.68;100990.69;5036062;28;45563;-51
2022/05/25 03:59:13;;;;;;;;;1.00;1.00;;;;;14.73;59.30;100993.47;5035494;28;45302;-50
2022/05/25 04:01:38;;;;;;;;;2.50;2.00;;;;;14.73;59.19;100987.94;5035709;28;45554;-52
2022/05/25 04:04:04;;;;;;;;;2.00;2.00;;;;;14.74;59.60;100988.81;5036107;28;45596;-50
2022/05/25 04:06:30;;;;;;;;;1.50;1.50;;;;;14.54;59.41;100956.75;5035804;28;45610;-54
2022/05/25 04:08:55;;;;;;;;;3.50;0.75;;;;;14.76;59.68;100981.13;5068077;28;45374;-54
2022/05/25 04:11:21;;;;;;;;;2.00;1.00;;;;;14.71;59.75;100976.28;5036126;28;45361;-50
2022/05/25 04:13:46;;;;;;;;;1.75;1.75;;;;;14.74;59.85;100994.34;5035915;28;45314;-52
2022/05/25 04:16:12;;;;;;;;;3.00;1.00;;;;;14.73;59.55;100992.63;5035466;28;45527;-53
2022/05/25 04:18:37;;;;;;;;;2.25;2.00;;;;;14.55;59.28;100966.72;5067963;28;45349;-51
2022/05/25 04:21:03;;;;;;;;;1.00;1.00;;;;;14.71;59.35;100995.63;5035918;28;45353;-51
2022/05/25 04:23:28;;;;;;;;;0.75;0.75;;;;;14.75;59.67;100996.88;5035902;28;45397;-48
2022/05/25 04:25:54;;;;;;;;;1.00;1.00;;;;;14.73;59.67;100998.16;5035435;28;46587;-52
2022/05/25 04:28:20;;;;;;;;;1.00;1.00;;;;;14.69;59.33;100991.41;5035237;28;45692;-55
2022/05/25 04:30:46;;;;;;;;;3.00;2.00;;;;;14.74;59.70;101006.22;5035580;28;45442;-53
2022/05/25 04:33:11;;;;;;;;;1.25;1.00;;;;;14.75;59.70;101007.94;5036026;28;45462;-51
2022/05/25 04:35:37;;;;;;;;;2.50;2.50;;;;;14.76;59.88;101008.75;5035221;28;46607;-52
2022/05/25 04:38:03;;;;;;;;;1.25;1.25;;;;;14.52;59.99;100969.97;5035485;28;45298;-52
2022/05/25 04:40:36;;;;;;;;;2.40;1.40;;;;;14.71;59.62;101012.19;5067772;28;45404;-52
2022/05/25 04:43:04;;;;;;;;;1.00;1.00;;;;;14.37;59.84;100957.41;5035788;28;45524;-51
2022/05/25 04:45:29;;;;;;;;;1.20;1.20;;;;;14.82;59.48;101018.03;5036477;28;45653;-53
2022/05/25 04:47:56;;;;;;;;;3.25;1.25;;;;;14.84;59.42;101024.19;5037735;28;45740;-51
2022/05/25 04:50:23;;;;;;;;;1.80;1.80;;;;;14.61;59.44;100987.91;5039200;28;45326;-50
2022/05/25 04:52:49;;;;;;;;;3.00;2.00;;;;;14.84;58.92;101021.41;5038745;28;45462;-53
2022/05/25 04:57:59;;;;;;;;;2.00;2.00;;;;;14.92;59.41;101023.84;5038678;28;45303;-53
2022/05/25 05:00:24;;;;;;;;;2.00;2.00;;;;;14.93;59.22;101033.81;5038708;28;45288;-52
2022/05/25 05:02:50;;;;;;;;;3.00;3.00;;;;;14.91;59.00;101036.81;5038299;28;45591;-55
2022/05/25 05:05:17;;;;;;;;;3.00;2.00;;;;;14.74;58.80;101014.50;5038442;28;45921;-52
2022/05/25 05:07:43;;;;;;;;;2.00;2.00;;;;;14.94;58.98;101038.28;5036898;28;45835;-53
2022/05/25 05:10:09;;;;;;;;;2.50;2.50;;;;;14.92;59.47;101043.19;5038269;28;45468;-49
2022/05/25 05:12:34;;;;;;;;;2.60;2.60;;;;;14.91;59.58;101042.34;5038509;28;45786;-52
2022/05/25 05:15:00;;;;;;;;;4.00;4.00;;;;;14.98;59.37;101044.16;5037931;28;45447;-52
2022/05/25 05:17:26;;;;;;;;;3.00;3.00;;;;;15.00;59.08;101051.16;5038221;28;45295;-54
2022/05/25 05:19:51;;;;;;;;;5.00;3.50;;;;;15.03;59.09;101056.22;5037997;28;45213;-56
2022/05/25 05:22:17;;;;;;;;;4.00;4.00;;;;;14.90;59.04;101031.53;5037496;28;45416;-51
2022/05/25 05:24:42;;;;;;;;;4.00;4.00;;;;;14.76;58.96;101015.16;5036521;28;46360;-52
2022/05/25 05:27:08;;;;;;;;;4.75;3.75;;;;;14.86;59.10;101022.03;5038197;28;45423;-51
2022/05/25 05:29:33;;;;;;;;;4.00;4.00;;;;;15.07;58.49;101055.75;5037926;28;45425;-51
2022/05/25 05:31:59;;;;;;;;;5.50;3.75;;;;;15.16;58.43;101065.41;5037056;28;45536;-54
2022/05/25 05:34:28;;;;;;;;;5.00;5.00;;;;;15.13;58.81;101052.03;5036490;28;45438;-55
2022/05/25 05:36:56;;;;;;;;;6.40;4.80;;;;;15.18;58.54;101060.47;5037651;28;45365;-54
2022/05/25 05:39:23;;;;;;;;;5.20;5.20;;;;;15.12;58.52;101048.44;5037795;28;45337;-52
2022/05/25 05:42:03;;;;;;;;;3.00;3.00;;;;;15.11;57.89;101056.97;5020173;28;45399;-53
2022/05/25 05:44:31;;;;;;;;;4.20;3.60;;;;;15.10;57.95;101042.28;5036548;28;45407;-51
2022/05/25 05:46:57;;;;;;;;;4.00;4.00;;;;;15.12;57.91;101051.22;5037872;28;45285;-53
2022/05/25 05:49:23;;;;;;;;;6.40;4.80;;;;;15.11;58.26;101038.44;5036420;28;45466;-51
2022/05/25 05:51:48;;;;;;;;;3.00;3.00;;;;;15.12;57.90;101034.63;5038037;28;45425;-50
2022/05/25 05:54:14;;;;;;;;;5.50;4.00;;;;;15.13;58.10;101029.94;5037112;28;46062;-50
2022/05/25 05:56:39;;;;;;;;;2.50;2.50;;;;;15.15;57.74;101036.91;5037048;28;45737;-48
2022/05/25 05:59:05;;;;;;;;;4.00;4.00;;;;;15.16;57.75;101049.66;5036310;28;45483;-53
2022/05/25 06:01:31;;;;;;;;;2.00;2.00;;;;;15.02;57.33;101046.25;5037778;28;45369;-54
2022/05/25 06:03:56;;;;;;;;;3.00;3.00;;;;;14.89;57.55;101018.81;5037598;28;46458;-52
2022/05/25 06:06:23;;;;;;;;;1.75;1.00;;;;;15.15;57.30;101058.16;5037582;28;45496;-50
2022/05/25 06:08:49;;;;;;;;;4.00;2.00;;;;;14.95;57.15;101058.47;5037822;28;45344;-52
2022/05/25 06:11:16;;;;;;;;;4.00;3.00;;;;;14.73;57.80;101015.56;5037863;28;45260;-50
2022/05/25 06:13:41;;;;;;;;;2.80;2.80;;;;;15.11;57.85;101066.09;5037549;28;46500;-52
2022/05/25 06:21:35;;;;;;;;;3.60;2.60;;;;;15.11;57.02;101092.91;5037528;28;45389;-56
2022/05/25 06:24:00;;;;;;;;;3.25;3.25;;;;;15.01;57.10;101088.75;5037597;28;46206;-52
2022/05/25 06:26:30;;;;;;;;;2.00;2.00;;;;;14.98;57.80;101089.25;5037326;28;45442;-50
2022/05/25 06:28:56;;;;;;;;;2.60;2.60;;;;;14.85;57.44;101065.41;5037422;28;45395;-54
2022/05/25 06:31:22;;;;;;;;;1.80;1.80;;;;;15.11;56.84;101098.44;5037442;28;45418;-53
2022/05/25 06:33:48;;;;;;;;;2.00;2.00;;;;;15.09;56.64;101095.91;5036141;28;46286;-53
2022/05/25 06:36:18;;;;;;;;;3.00;1.00;;;;;15.12;56.35;101091.81;5037180;28;45318;-56
2022/05/25 06:38:44;;;;;;;;;3.00;3.00;;;;;15.16;56.20;101098.59;5035804;28;45362;-53
2022/05/25 06:41:09;;;;;;;;;3.00;3.00;;;;;15.12;55.92;101100.13;5037223;28;45970;-51
2022/05/25 06:43:35;;;;;;;;;3.00;3.00;;;;;15.13;56.29;101112.84;5037143;28;47238;-53
2022/05/25 06:46:00;;;;;;;;;2.50;2.50;;;;;15.04;55.04;101118.72;5036772;28;45429;-59
2022/05/25 06:48:26;;;;;;;;;3.00;2.00;;;;;14.91;55.82;101122.47;5037115;28;45374;-57
2022/05/25 06:50:52;;;;;;;;;4.75;3.50;;;;;15.01;56.48;101123.88;5037041;28;45434;-54
2022/05/25 06:53:17;;;;;;;;;2.00;2.00;;;;;15.09;56.55;101120.78;5035263;28;48077;-54
2022/05/25 06:55:43;;;;;;;;;4.00;3.00;;;;;15.12;55.93;101109.28;5018855;28;45412;-56
2022/05/25 06:58:12;;;;;;;;;2.50;2.50;;;;;15.15;55.52;101094.97;5035751;28;45388;-53
2022/05/25 07:00:38;;;;;;;;;2.80;2.00;;;;;15.43;56.26;101125.84;5030673;28;45425;-49
2022/05/25 07:03:04;;;;;;;;;2.00;2.00;;;;;15.45;55.78;101126.44;5034307;28;45564;-52
2022/05/25 07:05:30;;;;;;;;;2.40;2.40;;;;;15.50;56.09;101134.03;5028977;28;45840;-57
2022/05/25 07:07:55;;;;;;;;;2.50;2.50;;;;;15.56;55.55;101138.63;5048192;28;45498;-52
2022/05/25 07:10:21;;;;;;;;;1.00;1.00;;;;;15.56;55.19;101130.34;5014615;28;45797;-59
2022/05/25 07:12:47;;;;;;;;;5.75;3.00;;;;;15.56;55.52;101111.81;5047508;28;45612;-56
2022/05/25 07:15:12;;;;;;;;;4.25;3.25;;;;;15.40;55.43;101095.88;5014796;28;45822;-55
2022/05/25 07:17:38;;;;;;;;;1.50;1.50;;;;;15.41;55.03;101109.50;5031172;28;45406;-55
2022/05/25 07:20:05;;;;;;;;;1.25;1.00;;;;;15.55;53.92;101139.72;5016550;28;45661;-53
2022/05/25 07:22:31;;;;;;;;;1.80;1.80;;;;;15.55;54.15;101139.72;5015826;28;46259;-55
2022/05/25 07:24:56;;;;;;;;;2.00;2.00;;;;;15.60;54.13;101148.16;5016591;28;45358;-56
2022/05/25 07:27:22;;;;;;;;;1.75;1.00;;;;;15.63;53.74;101155.97;5016585;28;45383;-55
2022/05/25 07:29:47;;;;;;;;;2.25;1.00;;;;;15.61;53.15;101160.91;5048162;28;45512;-53
2022/05/25 07:32:14;;;;;;;;;2.00;0.00;;;;;15.52;52.89;101156.81;5016399;28;45566;-56
2022/05/25 07:34:44;;;;;;;;;0.40;0.40;;;;;15.56;51.98;101169.06;5031055;28;45729;-59
2022/05/25 07:37:15;;;;;;;;;0.20;0.20;;;;;15.58;52.49;101167.75;5014697;28;45281;-51
2022/05/25 07:39:50;;;;;;;;;1.00;1.00;;;;;15.69;52.26;101163.34;5015891;28;45424;-53
2022/05/25 07:42:16;;;;;;;;;1.00;1.00;;;;;15.80;52.02;101164.44;5025983;28;47569;-54
2022/05/25 07:45:04;;;;;;;;;1.00;1.00;;;;;15.86;51.58;101173.75;5039362;28;45549;-53
2022/05/25 07:47:30;;;;;;;;;1.00;1.00;;;;;15.83;51.57;101166.75;4987883;27;45230;-57
2022/05/25 07:49:55;;;;;;;;;2.40;1.40;;;;;15.95;51.47;101169.56;5029701;28;45286;-56
2022/05/25 07:52:22;;;;;;;;;0.75;0.25;;;;;15.91;51.57;101159.19;5039824;28;45560;-56
2022/05/25 07:54:47;;;;;;;;;4.20;0.00;;;;;16.05;51.23;101180.06;5034761;28;45337;-55
2022/05/25 07:57:13;;;;;;;;;0.00;0.00;;;;;16.09;50.93;101172.97;5034731;28;45392;-56
2022/05/25 07:59:39;;;;;;;;;0.00;0.00;;;;;16.18;50.87;101176.22;5036388;28;45433;-54
2022/05/25 08:07:44;;;;;;;;;0.00;0.00;;;;;16.32;48.86;101178.78;5020596;28;45549;-54
2022/05/25 08:10:18;;;;;;;;;0.00;0.00;;;;;16.35;49.10;101190.22;4988561;28;45824;-54
2022/05/25 08:12:44;;;;;;;;;1.60;0.80;;;;;16.37;48.90;101193.56;5047235;28;46653;-51
2022/05/25 08:15:10;;;;;;;;;1.40;1.40;;;;;16.39;48.18;101190.56;5011054;28;45693;-54
2022/05/25 08:17:36;;;;;;;;;0.60;0.00;;;;;16.40;49.09;101184.78;5028859;28;45528;-56
2022/05/25 08:20:03;;;;;;;;;0.50;0.50;;;;;16.47;49.47;101192.13;5050431;28;45427;-56
2022/05/25 08:22:28;;;;;;;;;0.00;0.00;;;;;16.13;48.93;101163.09;5049718;28;46064;-57
2022/05/25 08:24:54;;;;;;;;;0.50;0.00;;;;;16.39;48.73;101196.13;5049742;28;45408;-54
2022/05/25 08:27:19;;;;;;;;;1.75;1.75;;;;;16.44;49.41;101187.09;5051401;28;45422;-57
2022/05/25 08:29:45;;;;;;;;;1.00;1.00;;;;;16.33;49.72;101148.03;5035822;28;45648;-56
2022/05/25 08:32:10;;;;;;;;;0.00;0.00;;;;;16.70;49.70;101182.97;5029423;28;46618;-55
2022/05/25 08:34:36;;;;;;;;;1.50;1.00;;;;;16.70;49.59;101184.91;5031186;28;45429;-56
2022/05/25 08:37:02;;;;;;;;;1.00;1.00;;;;;16.80;49.68;101185.13;5031024;28;45369;-55
2022/05/25 08:39:28;;;;;;;;;0.00;0.00;;;;;16.81;48.86;101186.78;5030980;28;45576;-54
2022/05/25 08:41:54;;;;;;;;;1.75;0.00;;;;;16.25;48.33;101085.56;5034432;28;46519;-54
2022/05/25 08:44:19;;;;;;;;;0.00;0.00;;;;;16.87;49.03;101182.22;5030893;28;45608;-58
2022/05/25 08:46:45;;;;;;;;;2.00;0.75;;;;;16.93;48.65;101184.84;5037173;28;45602;-56
2022/05/25 08:49:13;;;;;;;;;1.25;1.25;;;;;16.92;48.35;101197.03;5030844;28;45373;-59
2022/05/25 08:51:42;;;;;;;;;2.00;0.00;;;;;16.77;47.59;101157.91;5029472;28;45502;-59
2022/05/25 08:54:09;;;;;;;;;0.40;0.00;;;;;16.91;46.50;101178.72;5017468;28;45454;-59
2022/05/25 08:57:08;;;;;;;;;2.00;1.00;;;;;16.90;47.08;101176.19;5051118;28;45808;-59
2022/05/25 08:59:41;;;;;;;;;0.00;0.00;;;;;17.05;46.14;101193.19;5081839;27;45888;-52
2022/05/25 09:02:30;;;;;;;;;2.00;0.40;;;;;17.09;46.00;101193.56;5049110;28;46668;-51
2022/05/25 09:05:20;;;;;;;;;1.00;0.00;;;;;17.14;46.08;101196.41;5047274;28;45445;-53
2022/05/25 09:07:56;;;;;;;;;0.60;0.00;;;;;17.12;45.05;101186.66;5046018;28;45493;-57
2022/05/25 09:10:22;;;;;;;;;0.00;0.00;;;;;17.12;46.05;101189.44;5040974;28;46906;-56
2022/05/25 09:12:52;;;;;;;;;1.50;0.00;;;;;17.17;46.06;101200.63;5050486;28;45891;-56
2022/05/25 09:15:36;;;;;;;;;0.00;0.00;;;;;17.24;45.52;101208.81;5036986;28;45996;-56
2022/05/25 09:18:13;;;;;;;;;0.00;0.00;;;;;17.30;45.46;101188.41;5031340;28;45464;-52
2022/05/25 09:20:44;;;;;;;;;1.00;1.00;;;;;17.39;45.06;101198.03;5049330;28;45449;-53
2022/05/25 09:23:12;;;;;;;;;0.80;0.80;;;;;17.40;44.77;101199.69;5032410;28;46849;-60
2022/05/25 09:25:38;;;;;;;;;0.00;0.00;;;;;17.41;42.92;101190.31;5050438;28;45393;-61
2022/05/25 09:28:12;;;;;;;;;2.50;0.00;;;;;17.48;43.13;101179.06;5049118;28;45418;-57
2022/05/25 09:30:40;;;;;;;;;0.00;0.00;;;;;17.56;43.66;101175.06;5048880;28;45390;-52
2022/05/25 09:33:33;;;;;;;;;1.60;0.00;;;;;17.50;42.54;101167.72;5051241;28;45509;-57
2022/05/25 09:36:09;;;;;;;;;0.80;0.80;;;;;17.63;42.51;101189.63;5052230;28;45757;-56
2022/05/25 09:38:45;;;;;;;;;1.00;0.00;;;;;17.62;42.37;101196.25;5052579;28;45778;-60
2022/05/25 09:41:13;;;;;;;;;0.00;0.00;;;;;17.57;42.02;101196.16;5052522;28;45620;-54
2022/05/25 09:43:40;;;;;;;;;0.00;0.00;;;;;17.14;42.56;101118.75;5037083;28;45851;-56
2022/05/25 09:46:19;;;;;;;;;0.00;0.00;;;;;17.67;43.09;101187.19;5026312;28;45400;-54
2022/05/25 09:48:54;;;;;;;;;3.20;2.00;;;;;17.69;42.66;101185.84;5006660;28;45926;-57
2022/05/25 09:51:34;;;;;;;;;0.00;0.00;;;;;17.75;43.83;101195.94;5028875;28;45996;-60
2022/05/25 09:54:20;;;;;;;;;1.00;0.00;;;;;17.78;42.57;101190.97;5028517;28;46666;-60
2022/05/25 09:56:51;;;;;;;;;0.00;0.00;;;;;17.74;42.39;101185.94;5028620;28;45423;-56
2022/05/25 09:59:30;;;;;;;;;0.00;0.00;;;;;17.77;42.17;101189.31;5012429;28;45617;-63
2022/05/25 10:01:56;;;;;;;;;0.00;0.00;;;;;17.72;41.65;101181.72;5028277;28;45639;-57
2022/05/25 10:04:51;;;;;;;;;0.00;0.00;;;;;17.65;42.10;101161.63;5030219;28;46286;-56
2022/05/25 10:07:30;;;;;;;;;0.40;0.40;;;;;17.94;42.09;101197.66;5037739;28;45367;-56
2022/05/25 10:10:01;;;;;;;;;0.00;0.00;;;;;18.04;42.06;101208.09;5031979;28;45527;-58
2022/05/25 10:12:30;;;;;;;;;0.00;0.00;;;;;18.06;41.56;101198.47;5025675;28;45790;-59
2022/05/25 10:15:07;;;;;;;;;0.00;0.00;;;;;17.65;41.99;101150.50;5012530;28;46485;-57
2022/05/25 10:17:37;;;;;;;;;0.40;0.40;;;;;17.90;42.45;101191.75;5012652;28;45841;-52
2022/05/25 10:20:17;;;;;;;;;2.20;0.40;;;;;17.73;42.04;101156.47;5034778;28;45843;-60
2022/05/25 10:22:46;;;;;;;;;1.80;0.60;;;;;18.00;42.13;101193.88;5045321;28;45535;-57
2022/05/25 10:25:34;;;;;;;;;1.00;0.00;;;;;18.08;41.95;101209.31;5014579;28;45750;-59
2022/05/25 10:28:00;;;;;;;;;0.00;0.00;;;;;18.10;42.65;101202.41;5014704;28;45457;-60
2022/05/25 10:39:18;;;;;;;;;0.00;0.00;;;;;18.48;42.13;101210.22;5030346;28;45847;-60
2022/05/25 10:42:05;;;;;;;;;0.40;0.40;;;;;18.49;41.93;101201.66;5034151;28;45513;-60
2022/05/25 10:44:38;;;;;;;;;0.00;0.00;;;;;18.57;41.16;101200.34;5027881;28;45504;-59
2022/05/25 10:47:04;;;;;;;;;2.00;0.00;;;;;18.50;41.14;101183.03;5032501;28;45986;-61
2022/05/25 10:49:34;;;;;;;;;1.75;1.75;;;;;18.74;41.68;101200.34;5031256;28;45454;-61
2022/05/25 10:52:03;;;;;;;;;0.00;0.00;;;;;18.79;41.16;101191.25;5019378;28;46004;-58
2022/05/25 10:54:45;;;;;;;;;0.40;0.40;;;;;18.70;41.45;101188.06;5035060;28;45430;-59
2022/05/25 10:57:36;;;;;;;;;0.00;0.00;;;;;18.79;42.20;101196.81;5050829;28;45449;-59
2022/05/25 11:00:18;;;;;;;;;0.00;0.00;;;;;18.91;40.76;101191.13;5052173;28;45730;-57
2022/05/25 11:03:25;;;;;;;;;0.00;0.00;;;;;18.25;40.78;101078.75;5051258;28;45426;-61
2022/05/25 11:06:19;;;;;;;;;1.00;1.00;;;;;18.82;39.84;101186.00;5058167;28;45567;-55
2022/05/25 11:08:53;;;;;;;;;0.20;0.20;;;;;18.91;40.02;101196.69;5019963;28;46520;-59
2022/05/25 11:11:26;;;;;;;;;1.00;1.00;;;;;18.99;39.16;101195.41;5012114;28;45543;-56
2022/05/25 11:13:51;;;;;;;;;2.00;1.60;;;;;18.99;40.45;101201.78;5011178;28;45547;-59
2022/05/25 11:16:38;;;;;;;;;0.50;0.50;;;;;18.94;39.79;101180.31;5012268;28;45659;-56
2022/05/25 11:19:37;;;;;;;;;0.40;0.40;;;;;19.14;40.03;101178.06;5010661;28;47805;-57
2022/05/25 11:22:13;;;;;;;;;0.00;0.00;;;;;19.17;39.88;101186.78;5016039;28;46068;-55
2022/05/25 11:24:45;;;;;;;;;0.20;0.20;;;;;19.29;38.41;101205.25;5030866;28;45469;-53
2022/05/25 11:27:33;;;;;;;;;1.00;0.80;;;;;19.29;38.88;101191.34;5030580;28;45490;-59
2022/05/25 11:30:04;;;;;;;;;1.00;0.00;;;;;19.32;39.01;101194.44;5032016;28;45826;-59
2022/05/25 11:33:04;;;;;;;;;0.60;0.60;;;;;19.20;38.54;101194.59;5028658;28;45916;-59
2022/05/25 11:35:54;;;;;;;;;1.00;1.00;;;;;19.19;38.83;101192.91;5016846;28;45434;-55
2022/05/25 11:38:42;;;;;;;;;0.60;0.60;;;;;19.32;38.80;101194.44;5030735;28;45781;-60
2022/05/25 11:41:21;;;;;;;;;1.00;1.00;;;;;19.32;39.40;101196.41;5030426;28;45658;-56
2022/05/25 11:43:59;;;;;;;;;1.00;1.00;;;;;19.40;39.50;101198.72;5029803;28;45406;-60
2022/05/25 11:46:47;;;;;;;;;1.80;1.40;;;;;19.52;39.20;101197.72;5029502;28;45615;-59
2022/05/25 11:49:27;;;;;;;;;0.20;0.20;;;;;19.66;38.99;101195.34;4995579;28;45669;-57
2022/05/25 11:52:15;;;;;;;;;0.00;0.00;;;;;19.76;38.39;101196.28;4997259;28;46143;-57
2022/05/25 11:55:09;;;;;;;;;1.00;0.00;;;;;19.88;37.83;101195.31;5029240;28;45560;-61
2022/05/25 11:57:56;;;;;;;;;0.00;0.00;;;;;19.88;37.54;101192.53;5025556;28;45504;-56
2022/05/25 12:00:37;;;;;;;;;0.00;0.00;;;;;19.69;37.15;101165.03;5030008;28;45527;-57
2022/05/25 12:03:18;;;;;;;;;0.80;0.00;;;;;19.64;38.14;101165.00;5031377;28;46115;-56
2022/05/25 12:06:04;;;;;;;;;0.00;0.00;;;;;19.94;37.63;101191.47;5001419;28;45516;-57
2022/05/25 12:09:00;;;;;;;;;0.00;0.00;;;;;20.05;37.42;101200.78;5000419;28;46362;-58
2022/05/25 12:11:35;;;;;;;;;0.00;0.00;;;;;20.12;37.55;101193.03;5031660;28;45867;-58